createdAt,value
2018-02-13T00:02:11.343Z,99.90
2018-02-13T00:04:39.536Z,99.90
2018-02-13T00:07:07.047Z,99.90
2018-02-13T00:09:34.599Z,99.90
2018-02-13T00:12:02.107Z,99.90
2018-02-13T00:14:31.104Z,99.90
2018-02-13T00:16:58.710Z,99.90
2018-02-13T00:19:26.205Z,99.90
2018-02-13T00:21:53.728Z,99.90
2018-02-13T00:24:21.283Z,99.90
2018-02-13T00:26:48.794Z,99.90
2018-02-13T00:29:16.405Z,99.90
2018-02-13T00:31:43.970Z,99.90
2018-02-13T00:34:11.522Z,99.90
2018-02-13T00:36:39.046Z,99.90
2018-02-13T00:39:07.417Z,99.90
2018-02-13T00:41:36.059Z,99.90
2018-02-13T00:44:03.562Z,99.90
2018-02-13T00:46:31.159Z,99.90
2018-02-13T00:48:58.716Z,99.90
2018-02-13T00:51:26.260Z,99.90
2018-02-13T00:53:54.523Z,99.90
2018-02-13T00:56:23.540Z,99.90
2018-02-13T00:58:51.797Z,99.90
2018-02-13T01:01:20.065Z,99.90
2018-02-13T01:03:47.555Z,99.90
2018-02-13T01:06:15.055Z,99.90
2018-02-13T01:08:42.545Z,99.90
2018-02-13T01:11:10.130Z,99.90
2018-02-13T01:13:37.625Z,99.90
2018-02-13T01:16:05.144Z,99.90
2018-02-13T01:18:33.412Z,99.90
2018-02-13T01:21:02.591Z,99.90
2018-02-13T01:23:30.084Z,99.90
2018-02-13T01:25:57.584Z,99.90
2018-02-13T01:28:25.101Z,99.90
2018-02-13T01:30:52.608Z,99.90
2018-02-13T01:33:20.108Z,99.90
2018-02-13T01:35:48.385Z,99.90
2018-02-13T01:38:16.648Z,99.90
2018-02-13T01:40:44.913Z,99.90
2018-02-13T01:43:12.412Z,99.90
2018-02-13T01:45:39.925Z,99.90
2018-02-13T01:48:07.511Z,99.90
2018-02-13T01:50:35.778Z,99.90
2018-02-13T01:53:04.088Z,99.90
2018-02-13T01:55:31.606Z,99.90
2018-02-13T01:57:59.138Z,99.90
2018-02-13T02:00:26.762Z,99.90
2018-02-13T02:02:54.254Z,99.90
2018-02-13T02:05:22.104Z,99.90
2018-02-13T02:07:49.615Z,99.90
2018-02-13T02:10:17.891Z,99.90
2018-02-13T02:12:46.148Z,99.90
2018-02-13T02:15:15.180Z,99.90
2018-02-13T02:17:43.468Z,99.90
2018-02-13T02:20:11.023Z,99.90
2018-02-13T02:22:38.538Z,99.90
2018-02-13T02:25:06.043Z,99.90
2018-02-13T02:27:33.587Z,99.90
2018-02-13T02:30:01.856Z,99.90
2018-02-13T02:32:30.144Z,99.90
2018-02-13T02:34:58.431Z,99.90
2018-02-13T02:37:25.963Z,99.90
2018-02-13T02:39:54.261Z,99.90
2018-02-13T02:42:21.779Z,99.90
2018-02-13T02:44:49.384Z,99.90
2018-02-13T02:47:16.889Z,99.90
2018-02-13T02:49:44.383Z,99.90
2018-02-13T02:52:12.675Z,99.90
2018-02-13T02:54:40.183Z,99.90
2018-02-13T02:57:07.774Z,99.90
2018-02-13T02:59:36.061Z,99.90
2018-02-13T03:02:04.367Z,99.90
2018-02-13T03:04:31.867Z,99.90
2018-02-13T03:06:59.477Z,99.90
2018-02-13T03:09:26.992Z,99.90
2018-02-13T03:11:54.625Z,99.90
2018-02-13T03:14:22.128Z,99.90
2018-02-13T03:16:50.414Z,99.90
2018-02-13T03:19:18.673Z,99.90
2018-02-13T03:21:46.214Z,99.90
2018-02-13T03:24:13.724Z,99.90
2018-02-13T03:26:41.223Z,99.90
2018-02-13T03:29:09.298Z,99.90
2018-02-13T03:31:36.908Z,99.90
2018-02-13T03:34:04.424Z,99.90
2018-02-13T03:36:31.938Z,99.90
2018-02-13T03:38:59.434Z,99.90
2018-02-13T03:41:26.935Z,99.90
2018-02-13T03:43:54.491Z,99.90
2018-02-13T03:46:22.778Z,99.90
2018-02-13T03:48:50.364Z,99.90
2018-02-13T03:51:17.876Z,99.90
2018-02-13T03:53:46.142Z,99.90
2018-02-13T03:56:13.643Z,99.90
2018-02-13T03:58:41.148Z,99.90
2018-02-13T04:01:08.648Z,99.90
2018-02-13T04:03:36.142Z,99.90
2018-02-13T04:06:03.658Z,99.90
2018-02-13T04:08:31.923Z,99.90
2018-02-13T04:11:00.215Z,99.90
2018-02-13T04:13:28.489Z,99.90
2018-02-13T04:15:56.773Z,99.90
2018-02-13T04:18:24.271Z,99.90
2018-02-13T04:20:51.761Z,99.90
2018-02-13T04:23:19.260Z,99.90
2018-02-13T04:25:46.799Z,99.90
2018-02-13T04:28:15.075Z,99.90
2018-02-13T04:30:43.326Z,99.90
2018-02-13T04:33:10.921Z,99.90
2018-02-13T04:35:38.406Z,99.90
2018-02-13T04:38:05.926Z,99.90
2018-02-13T04:40:34.197Z,99.90
2018-02-13T04:43:02.503Z,99.90
2018-02-13T04:45:29.990Z,99.90
2018-02-13T04:47:59.550Z,99.90
2018-02-13T04:50:27.830Z,99.90
2018-02-13T04:52:55.336Z,99.90
2018-02-13T04:55:22.917Z,99.90
2018-02-13T04:57:50.522Z,99.90
2018-02-13T05:00:18.047Z,99.90
2018-02-13T05:02:45.531Z,99.90
2018-02-13T05:05:13.090Z,99.90
2018-02-13T05:07:40.605Z,99.90
2018-02-13T05:10:08.909Z,99.90
2018-02-13T05:12:37.214Z,99.90
2018-02-13T05:15:04.712Z,99.90
2018-02-13T05:17:32.218Z,99.90
2018-02-13T05:19:59.861Z,99.90
2018-02-13T05:22:28.140Z,99.90
2018-02-13T05:24:55.730Z,99.90
2018-02-13T05:27:23.279Z,99.90
2018-02-13T05:29:50.863Z,99.90
2018-02-13T05:32:18.461Z,99.90
2018-02-13T05:34:46.808Z,99.90
2018-02-13T05:37:14.324Z,99.90
2018-02-13T05:39:41.853Z,99.90
2018-02-13T05:42:09.445Z,99.90
2018-02-13T05:44:37.701Z,99.90
2018-02-13T05:47:06.011Z,99.90
2018-02-13T05:49:33.519Z,99.90
2018-02-13T05:52:01.011Z,99.90
2018-02-13T05:54:29.291Z,99.90
2018-02-13T05:56:57.563Z,99.90
2018-02-13T05:59:25.854Z,99.90
2018-02-13T06:01:53.355Z,99.90
2018-02-13T06:04:20.868Z,99.90
2018-02-13T06:06:48.473Z,99.90
2018-02-13T06:09:15.992Z,99.90
2018-02-13T06:11:43.509Z,99.90
2018-02-13T06:14:11.020Z,99.90
2018-02-13T06:16:38.581Z,99.90
2018-02-13T06:19:06.116Z,99.90
2018-02-13T06:21:34.392Z,99.90
2018-02-13T06:24:02.888Z,99.90
2018-02-13T06:26:30.489Z,99.90
2018-02-13T06:28:58.121Z,99.90
2018-02-13T06:31:25.669Z,99.90
2018-02-13T06:33:53.211Z,99.90
2018-02-13T06:36:21.516Z,99.90
2018-02-13T06:38:49.064Z,99.90
2018-02-13T06:41:16.846Z,99.90
2018-02-13T06:43:44.511Z,99.90
2018-02-13T06:46:12.089Z,99.90
2018-02-13T06:48:39.617Z,99.90
2018-02-13T06:51:07.293Z,99.90
2018-02-13T06:53:34.827Z,99.90
2018-02-13T06:56:03.099Z,99.90
2018-02-13T06:58:30.675Z,99.90
2018-02-13T07:00:58.224Z,99.90
2018-02-13T07:03:25.757Z,99.90
2018-02-13T07:05:53.243Z,99.90
2018-02-13T07:08:20.818Z,99.90
2018-02-13T07:10:48.332Z,99.90
2018-02-13T07:13:16.641Z,99.90
2018-02-13T07:15:44.187Z,99.90
2018-02-13T07:18:11.728Z,99.90
2018-02-13T07:20:39.269Z,99.90
2018-02-13T07:23:06.979Z,99.90
2018-02-13T07:25:34.555Z,99.90
2018-02-13T07:28:02.115Z,99.90
2018-02-13T07:30:29.898Z,99.90
2018-02-13T07:32:57.410Z,99.90
2018-02-13T07:35:25.224Z,99.90
2018-02-13T07:37:52.724Z,99.90
2018-02-13T07:40:21.009Z,99.90
2018-02-13T07:42:49.341Z,99.90
2018-02-13T07:45:16.849Z,99.90
2018-02-13T07:47:45.199Z,99.90
2018-02-13T07:50:13.630Z,99.90
2018-02-13T07:52:41.186Z,99.90
2018-02-13T07:55:08.827Z,99.90
2018-02-13T07:57:37.074Z,99.90
2018-02-13T08:00:04.569Z,99.90
2018-02-13T08:02:32.849Z,99.90
2018-02-13T08:05:01.191Z,99.90
2018-02-13T08:07:28.774Z,99.90
2018-02-13T08:09:57.030Z,99.90
2018-02-13T08:12:25.344Z,99.90
2018-02-13T08:14:53.606Z,99.90
2018-02-13T08:17:21.937Z,99.90
2018-02-13T08:19:49.450Z,99.90
2018-02-13T08:22:17.853Z,99.90
2018-02-13T08:24:45.408Z,99.90
2018-02-13T08:27:12.946Z,99.90
2018-02-13T08:29:41.190Z,99.90
2018-02-13T08:32:08.703Z,99.90
2018-02-13T08:34:36.262Z,99.90
2018-02-13T08:37:03.787Z,99.90
2018-02-13T08:39:32.061Z,99.90
2018-02-13T08:42:00.315Z,99.90
2018-02-13T08:44:28.221Z,99.90
2018-02-13T08:46:56.496Z,99.90
2018-02-13T08:49:24.807Z,99.90
2018-02-13T08:51:52.324Z,99.90
2018-02-13T08:54:20.598Z,99.90
2018-02-13T08:56:48.873Z,99.90
2018-02-13T08:59:17.156Z,99.90
2018-02-13T09:01:45.562Z,99.90
2018-02-13T09:04:13.126Z,99.90
2018-02-13T09:06:40.653Z,99.90
2018-02-13T09:09:08.982Z,99.90
2018-02-13T09:11:36.501Z,99.90
2018-02-13T09:14:04.006Z,99.90
2018-02-13T09:16:31.525Z,99.90
2018-02-13T09:18:59.026Z,99.90
2018-02-13T09:21:26.643Z,99.90
2018-02-13T09:23:54.155Z,99.90
2018-02-13T09:26:21.723Z,99.90
2018-02-13T09:28:49.332Z,99.90
2018-02-13T09:31:16.837Z,99.90
2018-02-13T09:33:44.339Z,99.90
2018-02-13T09:36:11.852Z,99.90
2018-02-13T09:38:39.360Z,99.90
2018-02-13T09:41:06.900Z,99.90
2018-02-13T09:43:35.163Z,99.90
2018-02-13T09:46:02.720Z,99.90
2018-02-13T09:48:30.248Z,99.90
2018-02-13T09:50:57.802Z,99.80
2018-02-13T09:53:25.328Z,98.90
2018-02-13T09:55:53.836Z,97.80
2018-02-13T09:58:22.278Z,98.50
2018-02-13T10:00:50.575Z,97.80
2018-02-13T10:03:18.105Z,97.70
2018-02-13T10:05:46.391Z,95.90
2018-02-13T10:08:14.787Z,95.90
2018-02-13T10:10:42.283Z,95.90
2018-02-13T10:13:09.808Z,95.70
2018-02-13T10:15:37.308Z,95.10
2018-02-13T10:18:04.853Z,95.20
2018-02-13T10:20:32.356Z,94.90
2018-02-13T10:23:00.615Z,94.00
2018-02-13T10:25:28.189Z,94.00
2018-02-13T10:27:56.454Z,93.90
2018-02-13T10:30:24.800Z,93.70
2018-02-13T10:32:52.406Z,93.40
2018-02-13T10:35:20.019Z,92.50
2018-02-13T10:37:47.666Z,92.60
2018-02-13T10:40:15.256Z,92.10
2018-02-13T10:42:42.936Z,92.30
2018-02-13T10:45:10.582Z,90.90
2018-02-13T10:47:38.294Z,91.30
2018-02-13T10:50:05.975Z,90.90
2018-02-13T10:52:33.686Z,91.20
2018-02-13T10:55:02.066Z,90.50
2018-02-13T10:57:29.865Z,90.50
2018-02-13T10:59:58.207Z,90.60
2018-02-13T11:02:25.902Z,90.60
2018-02-13T11:04:53.589Z,89.60
2018-02-13T11:07:21.155Z,89.80
2018-02-13T11:09:48.893Z,88.30
2018-02-13T11:12:16.493Z,88.40
2018-02-13T11:14:44.150Z,85.90
2018-02-13T11:17:11.755Z,87.80
2018-02-13T11:19:39.336Z,88.30
2018-02-13T11:22:07.046Z,87.50
2018-02-13T11:24:34.619Z,86.90
2018-02-13T11:27:02.357Z,88.20
2018-02-13T11:29:29.959Z,86.50
2018-02-13T11:31:57.515Z,86.60
2018-02-13T11:34:25.169Z,86.60
2018-02-13T11:36:52.733Z,86.70
2018-02-13T11:39:20.324Z,85.50
2018-02-13T11:41:47.889Z,85.10
2018-02-13T11:44:15.582Z,85.60
2018-02-13T11:46:43.098Z,84.90
2018-02-13T11:49:10.614Z,84.00
2018-02-13T11:51:38.284Z,82.90
2018-02-13T11:54:06.001Z,83.20
2018-02-13T11:56:34.262Z,84.20
2018-02-13T11:59:01.829Z,84.10
2018-02-13T12:01:30.090Z,81.90
2018-02-13T12:03:58.398Z,83.10
2018-02-13T12:06:25.905Z,83.10
2018-02-13T12:08:53.891Z,82.60
2018-02-13T12:11:22.164Z,81.60
2018-02-13T12:13:49.734Z,81.50
2018-02-13T12:16:18.010Z,82.60
2018-02-13T12:18:46.311Z,83.20
2018-02-13T12:21:13.801Z,83.00
2018-02-13T12:23:41.303Z,81.50
2018-02-13T12:26:09.679Z,81.20
2018-02-13T12:28:37.943Z,82.00
2018-02-13T12:31:06.302Z,83.40
2018-02-13T12:33:33.926Z,83.30
2018-02-13T12:36:01.448Z,82.70
2018-02-13T12:38:30.471Z,82.00
2018-02-13T12:40:58.763Z,77.40
2018-02-13T12:43:26.262Z,77.30
2018-02-13T12:45:53.891Z,75.70
2018-02-13T12:48:21.416Z,77.30
2018-02-13T12:50:49.842Z,81.80
2018-02-13T12:53:17.720Z,81.60
2018-02-13T12:55:46.175Z,83.20
2018-02-13T12:58:14.730Z,82.90
2018-02-13T13:00:42.978Z,83.00
2018-02-13T13:03:10.504Z,83.00
2018-02-13T13:05:37.994Z,82.70
2018-02-13T13:08:05.482Z,80.40
2018-02-13T13:10:33.003Z,80.00
2018-02-13T13:13:00.509Z,81.40
2018-02-13T13:15:28.046Z,81.20
2018-02-13T13:17:56.357Z,76.90
2018-02-13T13:20:23.955Z,76.30
2018-02-13T13:22:51.452Z,76.80
2018-02-13T13:25:19.856Z,79.70
2018-02-13T13:27:47.493Z,79.30
2018-02-13T13:30:15.783Z,79.50
2018-02-13T13:32:43.282Z,79.50
2018-02-13T13:35:10.804Z,79.80
2018-02-13T13:37:38.471Z,83.80
2018-02-13T13:40:05.971Z,82.70
2018-02-13T13:42:33.586Z,84.80
2018-02-13T13:45:01.090Z,85.50
2018-02-13T13:47:29.013Z,86.20
2018-02-13T13:49:56.571Z,83.70
2018-02-13T13:52:24.090Z,80.60
2018-02-13T13:54:51.653Z,84.10
2018-02-13T13:57:19.239Z,85.40
2018-02-13T13:59:47.547Z,84.40
2018-02-13T14:02:15.075Z,84.40
2018-02-13T14:04:43.459Z,85.20
2018-02-13T14:07:10.979Z,85.60
2018-02-13T14:09:38.466Z,87.20
2018-02-13T14:12:06.755Z,86.60
2018-02-13T14:14:34.345Z,86.70
2018-02-13T14:17:01.852Z,83.50
2018-02-13T14:19:30.117Z,86.10
2018-02-13T14:21:57.626Z,86.10
2018-02-13T14:24:26.153Z,89.40
2018-02-13T14:26:53.738Z,89.40
2018-02-13T14:29:22.155Z,90.90
2018-02-13T14:31:49.653Z,90.90
2018-02-13T14:34:17.232Z,91.10
2018-02-13T14:36:45.490Z,90.80
2018-02-13T14:39:13.079Z,90.70
2018-02-13T14:41:40.665Z,90.40
2018-02-13T14:44:08.223Z,90.00
2018-02-13T14:46:36.529Z,90.10
2018-02-13T14:49:04.042Z,87.80
2018-02-13T14:51:31.632Z,87.30
2018-02-13T14:53:59.109Z,85.70
2018-02-13T14:56:26.620Z,87.20
2018-02-13T14:58:54.095Z,86.50
2018-02-13T15:01:21.635Z,86.90
2018-02-13T15:03:49.144Z,88.00
2018-02-13T15:06:16.626Z,88.00
2018-02-13T15:08:44.908Z,89.50
2018-02-13T15:11:13.998Z,88.40
2018-02-13T15:13:41.503Z,88.50
2018-02-13T15:16:09.829Z,90.30
2018-02-13T15:18:38.294Z,91.30
2018-02-13T15:21:05.907Z,91.20
2018-02-13T15:23:33.427Z,90.70
2018-02-13T15:26:01.132Z,91.20
2018-02-13T15:28:28.669Z,91.10
2018-02-13T15:30:56.200Z,91.70
2018-02-13T15:33:23.696Z,91.20
2018-02-13T15:35:51.312Z,91.20
2018-02-13T15:38:19.809Z,91.90
2018-02-13T15:40:47.303Z,92.20
2018-02-13T15:43:15.989Z,92.20
2018-02-13T15:45:43.508Z,92.10
2018-02-13T15:48:11.068Z,91.90
2018-02-13T15:50:39.148Z,92.50
2018-02-13T15:53:06.755Z,92.40
2018-02-13T15:55:34.252Z,92.80
2018-02-13T15:58:02.056Z,92.40
2018-02-13T16:00:30.518Z,92.80
2018-02-13T16:02:58.977Z,93.40
2018-02-13T16:05:26.527Z,93.30
2018-02-13T16:07:54.017Z,92.60
2018-02-13T16:10:22.291Z,92.60
2018-02-13T16:12:50.561Z,93.40
2018-02-13T16:15:18.842Z,93.90
2018-02-13T16:17:46.371Z,93.90
2018-02-13T16:20:13.896Z,94.20
2018-02-13T16:22:41.446Z,94.20
2018-02-13T16:25:08.953Z,94.10
2018-02-13T16:27:36.443Z,94.40
2018-02-13T16:30:04.716Z,94.90
2018-02-13T16:32:33.064Z,95.30
2018-02-13T16:35:00.555Z,95.30
2018-02-13T16:37:28.841Z,95.30
2018-02-13T16:39:57.107Z,95.30
2018-02-13T16:42:25.374Z,95.20
2018-02-13T16:44:52.923Z,95.20
2018-02-13T16:47:20.508Z,95.80
2018-02-13T16:49:48.817Z,96.60
2018-02-13T16:52:16.312Z,96.60
2018-02-13T16:54:43.920Z,96.60
2018-02-13T16:57:11.419Z,96.90
2018-02-13T16:59:38.935Z,97.00
2018-02-13T17:02:06.448Z,97.10
2018-02-13T17:04:34.105Z,97.40
2018-02-13T17:07:01.628Z,97.50
2018-02-13T17:09:29.137Z,97.50
2018-02-13T17:11:56.667Z,97.60
2018-02-13T17:14:24.204Z,97.60
2018-02-13T17:16:51.725Z,97.90
2018-02-13T17:19:19.986Z,98.10
2018-02-13T17:21:49.030Z,97.90
2018-02-13T17:24:16.588Z,97.90
2018-02-13T17:26:44.144Z,98.00
2018-02-13T17:29:11.653Z,98.20
2018-02-13T17:31:39.176Z,98.40
2018-02-13T17:34:06.709Z,98.40
2018-02-13T17:36:35.005Z,98.50
2018-02-13T17:39:02.519Z,98.50
2018-02-13T17:41:31.529Z,98.70
2018-02-13T17:43:59.097Z,98.70
2018-02-13T17:46:27.398Z,98.80
2018-02-13T17:48:54.884Z,98.80
2018-02-13T17:51:22.515Z,98.80
2018-02-13T17:53:50.020Z,98.60
2018-02-13T17:56:17.548Z,98.90
2018-02-13T17:58:45.056Z,99.10
2018-02-13T18:01:13.313Z,99.10
2018-02-13T18:03:40.837Z,99.30
2018-02-13T18:06:08.342Z,99.40
2018-02-13T18:08:36.638Z,99.60
2018-02-13T18:11:04.895Z,99.20
2018-02-13T18:13:32.519Z,99.10
2018-02-13T18:16:00.040Z,99.90
2018-02-13T18:18:27.534Z,99.90
2018-02-13T18:20:55.064Z,99.90
2018-02-13T18:23:22.670Z,99.90
2018-02-13T18:25:50.179Z,99.90
2018-02-13T18:28:17.709Z,99.90
2018-02-13T18:30:45.216Z,99.90
2018-02-13T18:33:12.706Z,99.90
2018-02-13T18:35:40.219Z,99.90
2018-02-13T18:38:07.736Z,99.90
2018-02-13T18:40:35.243Z,99.90
2018-02-13T18:43:02.760Z,99.90
2018-02-13T18:45:30.276Z,99.90
2018-02-13T18:47:58.635Z,99.90
2018-02-13T18:50:26.127Z,99.90
2018-02-13T18:55:21.918Z,99.90
2018-02-13T18:57:50.199Z,99.90
2018-02-13T19:00:17.756Z,99.90
2018-02-13T19:02:45.258Z,99.90
2018-02-13T19:05:12.776Z,99.90
2018-02-13T19:07:41.050Z,99.90
2018-02-13T19:10:08.570Z,99.90
2018-02-13T19:12:36.059Z,99.90
2018-02-13T19:15:04.369Z,99.90
2018-02-13T19:17:31.909Z,99.90
2018-02-13T19:19:59.430Z,99.90
2018-02-13T19:22:26.930Z,99.90
2018-02-13T19:24:54.459Z,99.90
2018-02-13T19:27:21.979Z,99.90
2018-02-13T19:29:49.474Z,99.90
2018-02-13T19:32:16.980Z,99.90
2018-02-13T19:34:44.485Z,99.90
2018-02-13T19:37:11.975Z,99.90
2018-02-13T19:39:39.478Z,99.90
2018-02-13T19:42:06.980Z,99.90
2018-02-13T19:44:35.267Z,99.90
2018-02-13T19:47:02.784Z,99.90
2018-02-13T19:49:30.303Z,99.90
2018-02-13T19:51:57.867Z,99.90
2018-02-13T19:54:26.566Z,99.90
2018-02-13T19:56:54.104Z,99.90
2018-02-13T19:59:21.614Z,99.90
2018-02-13T20:01:49.316Z,99.90
2018-02-13T20:04:17.599Z,99.90
2018-02-13T20:06:45.096Z,99.90
2018-02-13T20:09:13.819Z,99.90
2018-02-13T20:11:41.673Z,99.90
2018-02-13T20:14:09.246Z,99.90
2018-02-13T20:16:36.911Z,99.90
2018-02-13T20:19:04.484Z,99.90
2018-02-13T20:21:32.006Z,99.90
2018-02-13T20:23:59.529Z,99.90
2018-02-13T20:26:27.026Z,99.90
2018-02-13T20:28:54.552Z,99.90
2018-02-13T20:31:22.320Z,99.90
2018-02-13T20:33:49.886Z,99.90
2018-02-13T20:36:17.448Z,99.90
2018-02-13T20:38:45.153Z,99.90
2018-02-13T20:41:13.439Z,99.90
2018-02-13T20:43:42.347Z,99.90
2018-02-13T20:46:09.901Z,99.90
2018-02-13T20:48:37.420Z,99.90
2018-02-13T20:51:05.129Z,99.90
2018-02-13T20:53:34.052Z,99.90
2018-02-13T20:56:01.563Z,99.90
2018-02-13T20:58:30.824Z,99.90
2018-02-13T21:00:58.359Z,99.90
2018-02-13T21:03:25.872Z,99.90
2018-02-13T21:06:00.474Z,99.90
2018-02-13T21:08:29.296Z,99.90
2018-02-13T21:10:58.274Z,99.90
2018-02-13T21:13:26.653Z,99.90
2018-02-13T21:15:55.110Z,99.90
2018-02-13T21:18:23.779Z,99.90
2018-02-13T21:20:51.435Z,99.90
2018-02-13T21:23:19.683Z,99.90
2018-02-13T21:25:49.107Z,99.90
2018-02-13T21:28:16.960Z,99.90
2018-02-13T21:30:44.624Z,99.90
2018-02-13T21:33:12.226Z,99.90
2018-02-13T21:35:41.606Z,99.90
2018-02-13T21:38:09.652Z,99.90
2018-02-13T21:40:37.171Z,99.90
2018-02-13T21:43:04.736Z,99.90
2018-02-13T21:45:35.159Z,99.90
2018-02-13T21:48:03.583Z,99.90
2018-02-13T21:50:31.694Z,99.90
2018-02-13T21:52:59.558Z,99.90
2018-02-13T21:55:27.121Z,99.90
2018-02-13T21:57:54.623Z,99.90
2018-02-13T22:00:25.961Z,99.90
2018-02-13T22:02:53.671Z,99.90
2018-02-13T22:05:21.361Z,99.90
2018-02-13T22:07:53.279Z,99.90
2018-02-13T22:10:20.823Z,99.90
2018-02-13T22:12:49.389Z,99.90
2018-02-13T22:15:18.337Z,99.90
2018-02-13T22:17:45.888Z,99.90
2018-02-13T22:20:13.543Z,99.90
2018-02-13T22:22:41.046Z,99.90
2018-02-13T22:25:08.856Z,99.90
2018-02-13T22:27:36.350Z,99.90
2018-02-13T22:30:04.561Z,99.90
2018-02-13T22:32:32.837Z,99.90
2018-02-13T22:35:00.406Z,99.90
2018-02-13T22:37:27.963Z,99.90
2018-02-13T22:39:56.232Z,99.90
2018-02-13T22:42:24.516Z,99.90
2018-02-13T22:44:52.017Z,99.90
2018-02-13T22:47:19.511Z,99.90
2018-02-13T22:49:47.045Z,99.90
2018-02-13T22:52:15.567Z,99.90
2018-02-13T22:54:43.835Z,99.90
2018-02-13T22:57:11.346Z,99.90
2018-02-13T22:59:38.893Z,99.90
2018-02-13T23:02:06.477Z,99.90
2018-02-13T23:04:34.122Z,99.90
2018-02-13T23:07:01.647Z,99.90
2018-02-13T23:09:29.918Z,99.90
2018-02-13T23:11:58.235Z,99.90
2018-02-13T23:14:25.761Z,99.90
2018-02-13T23:16:54.032Z,99.90
2018-02-13T23:19:22.289Z,99.90
2018-02-13T23:21:49.796Z,99.90
2018-02-13T23:24:17.289Z,99.90
2018-02-13T23:26:44.784Z,99.90
2018-02-13T23:29:13.052Z,99.90
2018-02-13T23:31:41.402Z,99.90
2018-02-13T23:34:08.888Z,99.90
2018-02-13T23:36:36.411Z,99.90
2018-02-13T23:39:03.945Z,99.90
2018-02-13T23:41:31.484Z,99.90
2018-02-13T23:43:58.984Z,99.90
2018-02-13T23:46:26.473Z,99.90
2018-02-13T23:48:54.102Z,99.90
2018-02-13T23:51:21.596Z,99.90
2018-02-13T23:53:49.179Z,99.90
2018-02-13T23:56:16.684Z,99.90
2018-02-13T23:58:44.194Z,99.90
